Aérodrome :
LOGIN :

S'inscrire | Disclaimer

   EN    FR    IT 

 










Légende :    VFR   VFR Marginal   IFR   IFR Intensif   IFR Très Intensif
Visi : 
Plafond : 
>= 8 km
>= 3000ft
5 à 8 km
1000 à 3000 ft
1500m à 5 km
500 à 1000 ft
800 à 1500m
200 à 500 ft
< 800m
< 200 ft
Symboles :   Orages  Brouillard  Fortes neiges  Fortes précipitations  Vent > 20 kt
SIGMETs :   Divers  Orages  Givrage  Turbulence  Onde Orograph.  Cendres Volcan.







- Altitude de l'aérodrome : 184 ft
- Code IATA : BRU


EBBR - Bruxelles

DERNIER METAR :
  • 200320Z 14003KT 2000 BR BCFG FEW022 M00/M01 Q1017 TEMPO 1800 BR

METARs EXPIRÉS :
  • 200250Z 00000KT 2000 R25L/0800D R25R/1900N R01/1900N BR FEW022 00/M01 Q1017 TEMPO 1800 BR
  • 200220Z 09002KT 2300 R25L/1400D R25R/P2000N R01/P2000N BR NSC 01/M00 Q1017 TEMPO 1800 BR
  • 200150Z 12001KT 2500 BR NSC 01/M00 Q1017 NOSIG
  • 200120Z 11003KT 3300 BR FEW035 SCT044 01/M00 Q1017 NOSIG
  • 200050Z 13001KT 3500 BR FEW032 SCT043 02/00 Q1017 NOSIG

TAF TAF EBBR
Valide du 20 à 00h jusqu'au 21 à 06h UTC


192310Z 2000/2106 09004KT 4000 BR FEW040
PROB30
TEMPO 2004/2408 1200 BCFG
BECMG 2008/2010 9000 NSW
Pas de NOTAMs connus pour ce terrain.



MET'MAP, la Météo Aéronautique d'un coup d'oeil ! - Copyright ORBIFLY Décembre 2007 - Disclaimer

ORBIFLY MET'MAP TEAM :

Programmation & Développement : Alexandra Zaïnal
Conception & Développement : Baudouin d'Aumeries
Co-Programmation & Développement : Marc-Olivier Méhu
Soutien technique & logistique : Manuel Goepfert

Contact : metmap@orbifly.com




SOURCES & CREDITS :

   NOAA